createdAt,value
2018-07-26T00:01:35.948Z,9.30
2018-07-26T00:32:08.790Z,10.70
2018-07-26T00:41:57.287Z,9.95
2018-07-26T01:06:10.276Z,9.20
2018-07-26T01:08:51.983Z,9.40
2018-07-26T01:11:26.725Z,8.50
2018-07-26T01:17:31.449Z,9.30
2018-07-26T01:20:17.689Z,8.57
2018-07-26T01:22:52.274Z,10.47
2018-07-26T01:25:27.529Z,11.00
2018-07-26T01:30:45.818Z,9.37
2018-07-26T01:33:22.797Z,8.70
2018-07-26T01:35:56.100Z,10.53
2018-07-26T01:38:30.184Z,7.70
2018-07-26T01:41:02.647Z,10.07
2018-07-26T01:43:55.366Z,7.03
2018-07-26T01:46:28.876Z,9.87
2018-07-26T13:55:16.878Z,11.33
2018-07-26T13:57:51.784Z,10.97
2018-07-26T14:00:30.371Z,13.43
2018-07-26T14:03:10.800Z,13.50
2018-07-26T14:05:44.030Z,11.60
2018-07-26T15:28:13.156Z,12.83
2018-07-26T15:30:56.128Z,8.03
2018-07-26T15:33:34.153Z,12.37
2018-07-26T15:36:08.594Z,8.23
2018-07-26T15:39:02.037Z,8.47
2018-07-26T15:41:34.799Z,10.27
2018-07-26T15:44:15.895Z,8.37
2018-07-26T15:46:58.579Z,17.30
2018-07-26T15:49:57.431Z,8.00
2018-07-26T15:52:41.572Z,9.00
2018-07-26T15:55:15.288Z,10.37
2018-07-26T16:14:37.643Z,12.30
2018-07-26T17:12:40.770Z,11.18
2018-07-26T17:25:27.284Z,8.55
2018-07-26T17:38:35.561Z,10.88
2018-07-26T17:41:14.938Z,6.50
2018-07-26T17:43:49.377Z,6.80
2018-07-26T17:50:22.257Z,7.75
2018-07-26T18:01:21.804Z,8.65
2018-07-26T18:03:57.099Z,8.88
2018-07-26T18:06:37.897Z,7.75
2018-07-26T18:09:13.886Z,10.80
2018-07-26T18:11:51.632Z,10.23
2018-07-26T18:14:49.976Z,8.68
2018-07-26T18:20:34.677Z,8.73
2018-07-26T18:23:15.385Z,9.45
2018-07-26T18:25:51.709Z,7.47
2018-07-26T18:36:35.093Z,7.47
2018-07-26T18:39:26.300Z,8.53
2018-07-26T18:42:05.026Z,8.53
2018-07-26T18:44:59.174Z,7.95
2018-07-26T18:50:56.871Z,6.28
2018-07-26T18:53:33.407Z,8.53
2018-07-26T18:56:07.617Z,11.25
2018-07-26T18:58:43.469Z,7.87
2018-07-26T19:01:18.014Z,9.08
2018-07-26T19:03:52.294Z,24.07
2018-07-26T19:06:28.909Z,8.48
2018-07-26T19:09:03.193Z,7.08
2018-07-26T19:11:47.248Z,13.65
2018-07-26T19:14:20.471Z,11.90
2018-07-26T19:16:55.928Z,10.68
2018-07-26T19:19:39.403Z,11.40
2018-07-26T19:22:18.724Z,9.85
2018-07-26T19:24:56.820Z,10.28
2018-07-26T19:27:47.141Z,10.48
2018-07-26T19:30:25.503Z,8.83
2018-07-26T19:33:10.898Z,11.93
2018-07-26T19:35:52.719Z,12.70
2018-07-26T19:38:26.166Z,7.70
2018-07-26T19:41:02.271Z,9.63
2018-07-26T19:43:34.654Z,10.90
2018-07-26T19:48:46.592Z,14.87
2018-07-26T19:51:22.802Z,10.63
2018-07-26T19:53:57.381Z,10.13
2018-07-26T19:56:32.339Z,8.73
2018-07-26T19:59:09.909Z,9.87
2018-07-26T20:04:20.529Z,9.67
2018-07-26T20:09:58.867Z,7.80
2018-07-26T20:26:50.207Z,9.27
2018-07-26T20:29:27.021Z,8.80
2018-07-26T20:32:02.036Z,8.90
2018-07-26T20:34:37.711Z,8.13
2018-07-26T20:37:15.139Z,9.20
2018-07-26T20:39:48.020Z,11.07
2018-07-26T20:42:25.196Z,12.10
2018-07-26T20:45:00.708Z,15.53
2018-07-26T20:50:18.642Z,17.60
2018-07-26T20:55:31.010Z,19.53
2018-07-26T20:58:08.970Z,17.27
2018-07-26T21:00:44.612Z,16.10
2018-07-26T21:03:22.201Z,15.83
2018-07-26T21:06:04.360Z,14.93
2018-07-26T21:09:21.347Z,17.63
2018-07-26T21:12:05.363Z,26.57
2018-07-26T21:20:49.287Z,19.63
2018-07-26T21:23:26.191Z,17.67
2018-07-26T21:26:06.847Z,16.50
2018-07-26T21:28:47.606Z,15.83
2018-07-26T21:31:23.611Z,13.90
2018-07-26T21:33:57.229Z,14.27
2018-07-26T21:36:47.088Z,14.27
2018-07-26T21:39:25.325Z,11.77
2018-07-26T21:42:07.915Z,12.00
2018-07-26T21:44:50.637Z,14.73
2018-07-26T21:47:36.412Z,12.67
2018-07-26T21:50:15.856Z,13.87
2018-07-26T21:52:55.259Z,11.60
2018-07-26T21:55:29.916Z,11.70
2018-07-26T21:58:02.988Z,10.40
2018-07-26T22:00:45.711Z,14.93
2018-07-26T22:03:19.708Z,19.57
2018-07-26T22:05:59.712Z,28.00
2018-07-26T22:08:32.061Z,21.60
2018-07-26T22:11:06.166Z,20.87
2018-07-26T22:13:42.371Z,20.07
2018-07-26T22:16:14.646Z,18.57
2018-07-26T22:18:47.306Z,15.43
2018-07-26T22:21:20.816Z,15.87
2018-07-26T22:23:58.714Z,14.70
2018-07-26T22:26:34.046Z,15.30
2018-07-26T22:29:07.299Z,14.80
2018-07-26T22:31:41.638Z,16.55
2018-07-26T22:34:17.141Z,17.30
2018-07-26T22:36:55.976Z,18.20
2018-07-26T22:39:30.944Z,20.75
2018-07-26T22:42:03.088Z,18.65
2018-07-26T22:44:56.276Z,17.70
2018-07-26T22:47:29.469Z,17.50
2018-07-26T22:50:06.039Z,16.40
2018-07-26T22:52:39.537Z,21.60
2018-07-26T22:55:17.663Z,32.95
2018-07-26T22:57:51.241Z,28.13
2018-07-26T23:00:25.828Z,28.07
2018-07-26T23:02:58.153Z,27.17
2018-07-26T23:05:33.105Z,22.97
2018-07-26T23:08:06.010Z,18.10
2018-07-26T23:10:39.158Z,12.33
2018-07-26T23:13:13.684Z,11.23
2018-07-26T23:15:47.466Z,9.80
2018-07-26T23:18:21.107Z,10.47
2018-07-26T23:20:57.491Z,12.00
2018-07-26T23:26:11.202Z,16.07
2018-07-26T23:28:48.537Z,17.43
2018-07-26T23:34:57.191Z,17.80
2018-07-26T23:37:40.175Z,17.43
2018-07-26T23:40:33.249Z,17.90
2018-07-26T23:56:30.109Z,20.33
2018-07-26T23:59:02.528Z,20.43
